Skip Navigation LinksHome page > Weather > Current weather Skip Navigation Links

Current Weather

San Francisco International, San Francisco

For information only: do not use for flight planning or navigation.
Latest weather
Observation time Friday, December 3, 2021 1:56 AM PST
Local time Friday, December 3, 2021 2:11 AM PST
Flight conditions Instrument Meteorological Conditions
Winds
Wind direction West-Northwest (300°)
Wind speed 3 mph
Visibility 5 mi.
Present weather mist
Sky condition
Ceiling 700 ft. overcast
Cloud layer few clouds 400 ft.
Cloud layer overcast 700 ft.
Temperature 54°F
Dewpoint 51°F
Altimeter 30.12 in.Hg
Derived measurements
Relative humidity 90%
Density altitude -368 ft.
Sea-level pressure 30.11 in.Hg
Remarks
Automated weather observing station with precipitation discriminator.
METAR KSFO 030956Z 30003KT 5SM BR FEW004 OVC007 12/11 A3012 RMK AO2 SLP198 T01220106

Settings

Location code

InnerDrive.Weather 4.0.6770.0 Release CLR 4.0.30319.42000
Copyright ©2018 Inner Drive Technology. All rights reserved. Portions Copyright ©1986-2018 David Braverman.

Find weather

Site navigation


Skip Navigation Links

Place info

Page info

PayPal - The safer, easier way to pay online!

Return home.

Copyright ©2021 Inner Drive Technology. Purveyors of fine, hand-crafted computer software. Page printed 2021-12-03T10:11:11 UTC.